createdAt,value
2023-01-17T00:00:32.226Z,183.04
2023-01-17T00:01:32.209Z,182.72
2023-01-17T00:02:32.211Z,183.41
2023-01-17T00:03:32.206Z,182.83
2023-01-17T00:04:32.168Z,184.19
2023-01-17T00:05:32.164Z,183.29
2023-01-17T00:06:32.159Z,182.86
2023-01-17T00:07:32.151Z,182.85
2023-01-17T00:08:32.163Z,183.19
2023-01-17T00:09:32.170Z,183.06
2023-01-17T00:10:32.131Z,182.49
2023-01-17T00:11:32.131Z,183.39
2023-01-17T00:12:32.132Z,182.74
2023-01-17T00:13:32.137Z,183.58
2023-01-17T00:14:32.109Z,183.86
2023-01-17T00:15:32.129Z,184.03
2023-01-17T00:16:32.139Z,182.83
2023-01-17T00:17:32.106Z,183.62
2023-01-17T00:18:32.107Z,180.95
2023-01-17T00:19:32.086Z,182.38
2023-01-17T00:20:32.083Z,181.90
2023-01-17T00:21:32.087Z,182.04
2023-01-17T00:22:32.073Z,181.97
2023-01-17T00:23:32.107Z,182.24
2023-01-17T00:24:32.066Z,181.75
2023-01-17T00:25:32.051Z,182.08
2023-01-17T00:26:32.051Z,181.06
2023-01-17T00:27:32.058Z,181.17
2023-01-17T00:28:32.028Z,182.09
2023-01-17T00:29:32.036Z,180.83
2023-01-17T00:30:32.038Z,180.68
2023-01-17T00:31:32.068Z,180.91
2023-01-17T00:32:32.036Z,180.85
2023-01-17T00:33:32.028Z,180.69
2023-01-17T00:34:32.003Z,180.64
2023-01-17T00:35:31.978Z,180.84
2023-01-17T00:36:31.977Z,179.14
2023-01-17T00:37:31.961Z,179.09
2023-01-17T00:38:31.997Z,179.33
2023-01-17T00:39:31.974Z,179.44
2023-01-17T00:40:31.941Z,177.62
2023-01-17T00:41:31.945Z,177.72
2023-01-17T00:42:31.926Z,177.84
2023-01-17T00:43:31.930Z,179.08
2023-01-17T00:44:31.928Z,178.32
2023-01-17T00:45:31.919Z,177.42
2023-01-17T00:46:31.917Z,177.70
2023-01-17T00:47:31.886Z,177.39
2023-01-17T00:48:31.882Z,176.39
2023-01-17T00:49:31.883Z,178.26
2023-01-17T00:50:31.867Z,174.97
2023-01-17T00:51:31.866Z,176.47
2023-01-17T00:52:31.846Z,175.59
2023-01-17T00:53:31.995Z,174.80
2023-01-17T00:54:31.826Z,176.19
2023-01-17T00:55:31.827Z,175.36
2023-01-17T00:56:31.828Z,175.26
2023-01-17T00:57:31.818Z,175.98
2023-01-17T00:58:31.827Z,174.91
2023-01-17T00:59:31.818Z,174.74
2023-01-17T02:44:31.528Z,172.19
2023-01-17T02:45:31.543Z,175.25
2023-01-17T02:46:31.560Z,172.61
2023-01-17T02:47:31.543Z,173.18
2023-01-17T02:48:31.553Z,175.15
2023-01-17T02:49:31.536Z,171.46
2023-01-17T02:50:31.545Z,173.47
2023-01-17T02:51:31.538Z,172.72
2023-01-17T02:52:31.544Z,172.48
2023-01-17T02:53:31.543Z,173.12
2023-01-17T02:54:31.559Z,173.10
2023-01-17T02:55:31.564Z,172.46
2023-01-17T02:56:32.591Z,173.88
2023-01-17T02:57:31.553Z,172.67
2023-01-17T02:58:31.561Z,173.86
2023-01-17T02:59:31.604Z,172.47
2023-01-17T03:00:31.569Z,171.84
2023-01-17T03:01:31.653Z,172.00
2023-01-17T03:02:31.618Z,172.19
2023-01-17T03:03:31.536Z,172.24
2023-01-17T03:04:31.564Z,172.33
2023-01-17T03:05:31.526Z,173.31
2023-01-17T03:06:31.535Z,172.26
2023-01-17T03:07:31.535Z,172.52
2023-01-17T03:08:31.533Z,172.01
2023-01-17T03:09:31.530Z,171.60
2023-01-17T03:10:31.538Z,173.35
2023-01-17T03:11:31.537Z,172.20
2023-01-17T03:12:31.535Z,174.31
2023-01-17T03:13:31.556Z,172.89
2023-01-17T03:14:31.563Z,172.96
2023-01-17T03:15:31.556Z,172.07
2023-01-17T03:16:31.629Z,172.78
2023-01-17T03:17:31.534Z,171.99
2023-01-17T03:18:31.545Z,172.62
2023-01-17T03:19:31.539Z,172.90
2023-01-17T03:20:31.526Z,171.14
2023-01-17T03:21:31.531Z,172.64
2023-01-17T03:22:31.525Z,171.90
2023-01-17T03:23:31.532Z,172.21
2023-01-17T03:24:31.548Z,171.27
2023-01-17T03:25:31.524Z,172.13
2023-01-17T03:26:31.553Z,171.06
2023-01-17T03:27:31.522Z,172.34
2023-01-17T03:28:31.536Z,171.78
2023-01-17T03:29:31.535Z,171.23
2023-01-17T03:30:31.586Z,171.36
2023-01-17T03:31:31.523Z,171.71
2023-01-17T03:32:31.525Z,171.55
2023-01-17T03:33:31.531Z,171.34
2023-01-17T03:34:32.090Z,171.33
2023-01-17T03:35:31.515Z,172.74
2023-01-17T03:36:31.521Z,172.40
2023-01-17T03:37:31.523Z,172.82
2023-01-17T03:38:31.527Z,171.63
2023-01-17T03:39:31.514Z,171.36
2023-01-17T03:40:31.507Z,171.61
2023-01-17T03:41:31.520Z,171.77
2023-01-17T03:42:31.527Z,171.72
2023-01-17T03:43:31.509Z,171.69
2023-01-17T03:44:31.507Z,172.24
2023-01-17T03:45:31.541Z,172.19
2023-01-17T03:46:31.549Z,170.54
2023-01-17T03:47:31.498Z,170.24
2023-01-17T03:48:31.495Z,170.98
2023-01-17T03:49:31.499Z,171.98
2023-01-17T03:50:31.505Z,171.60
2023-01-17T03:51:31.521Z,171.07
2023-01-17T03:52:31.478Z,172.27
2023-01-17T03:53:31.464Z,170.37
2023-01-17T03:54:31.480Z,171.05
2023-01-17T03:55:31.488Z,170.62
2023-01-17T03:56:31.477Z,171.83
2023-01-17T03:57:31.479Z,169.79
2023-01-17T03:58:31.469Z,170.67
2023-01-17T03:59:31.462Z,169.84
2023-01-17T04:00:31.440Z,172.24
2023-01-17T04:01:31.674Z,170.15
2023-01-17T04:02:31.500Z,171.80
2023-01-17T04:03:31.459Z,172.09
2023-01-17T04:04:31.431Z,171.47
2023-01-17T04:05:31.432Z,171.13
2023-01-17T04:06:31.434Z,171.19
2023-01-17T04:07:31.427Z,170.80
2023-01-17T04:08:31.462Z,171.88
2023-01-17T04:09:31.417Z,171.23
2023-01-17T04:10:31.435Z,172.29
2023-01-17T04:11:31.431Z,171.29
2023-01-17T04:12:31.449Z,171.11
2023-01-17T04:13:31.424Z,171.07
2023-01-17T04:14:31.412Z,171.44
2023-01-17T04:15:31.419Z,171.52
2023-01-17T04:16:31.416Z,170.72
2023-01-17T04:17:31.432Z,171.48
2023-01-17T04:18:31.440Z,171.20
2023-01-17T04:19:31.391Z,171.38
2023-01-17T04:20:31.401Z,170.01
2023-01-17T06:35:30.639Z,159.20
2023-01-17T06:36:30.645Z,160.48
2023-01-17T06:37:30.682Z,159.71
2023-01-17T06:38:30.646Z,160.88
2023-01-17T06:39:30.641Z,159.93
2023-01-17T06:40:30.665Z,162.79
2023-01-17T06:41:30.603Z,163.56
2023-01-17T06:42:30.609Z,163.67
2023-01-17T06:43:30.587Z,167.15
2023-01-17T06:44:30.634Z,170.74
2023-01-17T06:45:30.617Z,172.29
2023-01-17T06:46:30.655Z,173.87
2023-01-17T06:47:30.590Z,175.05
2023-01-17T06:48:30.556Z,180.17
2023-01-17T06:49:30.557Z,171.71
2023-01-17T06:50:30.690Z,159.37
2023-01-17T06:51:30.579Z,137.55
2023-01-17T06:52:30.547Z,145.48
2023-01-17T06:53:30.588Z,169.59
2023-01-17T06:54:30.654Z,175.95
2023-01-17T06:55:31.170Z,175.62
2023-01-17T06:56:30.552Z,178.91
2023-01-17T06:57:30.549Z,179.24
2023-01-17T06:58:30.555Z,180.07
2023-01-17T06:59:30.583Z,182.01
2023-01-17T07:00:30.782Z,186.76
2023-01-17T07:01:30.666Z,196.56
2023-01-17T07:02:30.535Z,202.07
2023-01-17T07:03:30.573Z,207.70
2023-01-17T07:04:30.554Z,212.42
2023-01-17T07:05:30.580Z,214.86
2023-01-17T07:06:30.704Z,218.33
2023-01-17T07:07:32.419Z,172.03
2023-01-17T07:08:30.692Z,132.62
2023-01-17T07:09:30.596Z,111.48
2023-01-17T07:10:30.513Z,78.99
2023-01-17T07:11:30.531Z,87.22
2023-01-17T07:12:30.536Z,64.91
2023-01-17T07:13:30.545Z,33.76
2023-01-17T07:14:30.559Z,54.17
2023-01-17T07:15:30.618Z,78.50
2023-01-17T07:16:30.642Z,109.57
2023-01-17T07:17:30.629Z,129.91
2023-01-17T07:18:30.704Z,126.27
2023-01-17T07:19:30.759Z,144.53
2023-01-17T07:20:30.706Z,144.89
2023-01-17T07:21:30.663Z,155.75
2023-01-17T07:22:31.181Z,161.00
2023-01-17T07:23:30.676Z,165.43
2023-01-17T07:24:30.674Z,164.21
2023-01-17T07:25:30.678Z,140.88
2023-01-17T07:26:30.698Z,48.20
2023-01-17T07:27:30.712Z,7.20
2023-01-17T07:28:30.807Z,4.00
2023-01-17T07:29:30.711Z,12.42
2023-01-17T07:30:30.718Z,23.16
2023-01-17T07:31:30.794Z,42.59
2023-01-17T07:32:30.759Z,52.89
2023-01-17T07:33:30.831Z,54.45
2023-01-17T07:34:30.793Z,63.09
2023-01-17T07:35:30.817Z,77.61
2023-01-17T07:36:30.860Z,109.72
2023-01-17T07:37:30.867Z,150.47
2023-01-17T07:38:30.868Z,162.88
2023-01-17T07:39:30.885Z,163.04
2023-01-17T07:40:32.245Z,164.23
2023-01-17T07:41:31.033Z,165.50
2023-01-17T07:42:31.002Z,169.56
2023-01-17T07:43:31.069Z,155.78
2023-01-17T07:44:31.010Z,116.69
2023-01-17T07:45:31.047Z,106.37
2023-01-17T07:46:31.055Z,85.52
2023-01-17T07:47:31.013Z,50.10
2023-01-17T07:48:31.019Z,63.37
2023-01-17T07:49:31.058Z,86.63
2023-01-17T07:50:31.063Z,110.05
2023-01-17T07:51:31.058Z,147.00
2023-01-17T07:52:31.119Z,185.70
2023-01-17T07:53:31.112Z,196.73
2023-01-17T07:54:31.126Z,235.65
2023-01-17T07:55:31.118Z,239.97
2023-01-17T07:56:31.119Z,243.26
2023-01-17T07:57:31.133Z,237.23
2023-01-17T07:58:31.137Z,278.96
2023-01-17T07:59:31.147Z,250.40
2023-01-17T08:00:31.219Z,300.62
2023-01-17T08:01:31.255Z,251.81
2023-01-17T08:02:31.163Z,274.61
2023-01-17T08:03:31.259Z,236.85
2023-01-17T08:06:31.177Z,219.14
2023-01-17T08:52:52.454Z,44.20
2023-01-17T08:54:53.619Z,24.17
2023-01-17T09:34:31.708Z,161.56
2023-01-17T09:35:31.713Z,162.00
2023-01-17T09:36:31.759Z,165.26
2023-01-17T09:37:31.741Z,169.38
2023-01-17T09:38:31.682Z,182.03
2023-01-17T09:40:31.685Z,185.74
2023-01-17T09:41:31.690Z,186.98
2023-01-17T09:42:31.701Z,176.77
2023-01-17T09:43:31.663Z,186.11
2023-01-17T09:44:31.669Z,191.84
2023-01-17T09:45:31.683Z,186.62
2023-01-17T09:46:31.684Z,184.41
2023-01-17T09:47:31.741Z,179.90
2023-01-17T09:48:31.662Z,168.78
2023-01-17T09:49:31.659Z,167.66
2023-01-17T09:50:31.719Z,172.16
2023-01-17T09:51:31.669Z,173.09
2023-01-17T09:52:31.666Z,177.49
2023-01-17T09:53:31.632Z,182.31
2023-01-17T09:54:31.675Z,173.85
2023-01-17T09:55:31.639Z,157.17
2023-01-17T09:56:31.644Z,158.71
2023-01-17T09:57:31.658Z,165.62
2023-01-17T09:58:31.618Z,168.39
2023-01-17T09:59:35.280Z,171.19
2023-01-17T10:00:31.669Z,171.39
2023-01-17T10:01:31.775Z,171.61
2023-01-17T10:02:31.752Z,172.95
2023-01-17T10:03:31.828Z,173.03
2023-01-17T10:04:31.697Z,174.75
2023-01-17T10:05:31.665Z,176.98
2023-01-17T10:06:31.650Z,175.88
2023-01-17T10:07:31.663Z,171.80
2023-01-17T10:08:31.642Z,171.38
2023-01-17T10:09:31.664Z,173.53
2023-01-17T10:10:31.659Z,173.20
2023-01-17T10:11:31.641Z,179.02
2023-01-17T10:12:31.643Z,176.59
2023-01-17T10:13:31.652Z,180.34
2023-01-17T10:14:31.663Z,179.96
2023-01-17T10:15:31.630Z,182.79
2023-01-17T10:16:31.650Z,176.83
2023-01-17T10:17:31.645Z,152.67
2023-01-17T10:18:31.645Z,163.10
2023-01-17T10:19:31.647Z,147.28
2023-01-17T10:20:31.649Z,163.27
2023-01-17T10:21:31.817Z,167.76
2023-01-17T10:22:31.651Z,168.21
2023-01-17T10:23:31.656Z,170.79
2023-01-17T10:24:31.654Z,170.50
2023-01-17T10:25:31.679Z,168.46
2023-01-17T10:26:31.662Z,165.37
2023-01-17T10:27:31.642Z,157.03
2023-01-17T10:28:31.642Z,162.26
2023-01-17T10:29:31.648Z,155.32
2023-01-17T10:30:31.712Z,143.17
2023-01-17T10:31:31.668Z,119.18
2023-01-17T10:32:31.651Z,132.03
2023-01-17T10:33:31.674Z,145.58
2023-01-17T11:25:32.244Z,218.19
2023-01-17T11:26:31.742Z,155.13
2023-01-17T11:27:31.725Z,117.48
2023-01-17T11:28:31.719Z,101.55
2023-01-17T11:29:31.724Z,82.92
2023-01-17T11:30:31.748Z,72.40
2023-01-17T11:31:31.749Z,46.67
2023-01-17T11:32:31.794Z,23.65
2023-01-17T11:33:31.790Z,1.00
2023-01-17T11:34:32.269Z,0.00
2023-01-17T11:35:32.986Z,0.00
2023-01-17T11:36:33.819Z,0.00
2023-01-17T11:38:32.068Z,0.00
2023-01-17T11:39:32.210Z,0.00
2023-01-17T11:40:32.029Z,27.14
2023-01-17T11:41:32.265Z,32.20
2023-01-17T11:42:32.132Z,24.86
2023-01-17T11:43:32.137Z,25.25
2023-01-17T11:44:32.185Z,26.73
2023-01-17T11:45:32.202Z,32.26
2023-01-17T11:46:32.304Z,36.42
2023-01-17T11:47:32.284Z,43.85
2023-01-17T11:48:32.328Z,54.09
2023-01-17T11:49:32.400Z,70.41
2023-01-17T11:50:32.427Z,94.68
2023-01-17T11:51:32.442Z,113.12
2023-01-17T11:52:32.504Z,104.74
2023-01-17T11:53:32.535Z,119.37
2023-01-17T11:54:32.820Z,130.75
2023-01-17T11:55:32.630Z,132.72
2023-01-17T11:56:32.611Z,142.51
2023-01-17T11:57:32.663Z,140.37
2023-01-17T11:58:32.747Z,127.00
2023-01-17T11:59:32.701Z,148.53
2023-01-17T12:00:32.737Z,121.74
2023-01-17T12:01:32.745Z,143.68
2023-01-17T12:02:32.784Z,143.34
2023-01-17T12:03:32.842Z,138.85
2023-01-17T12:04:34.524Z,145.99
2023-01-17T12:05:32.856Z,125.56
2023-01-17T12:06:33.018Z,138.15
2023-01-17T12:07:32.916Z,130.81
2023-01-17T12:08:32.933Z,146.87
2023-01-17T12:09:32.951Z,167.24
2023-01-17T12:10:33.014Z,156.69
2023-01-17T12:11:33.013Z,172.01
2023-01-17T12:12:32.991Z,166.51
2023-01-17T12:13:33.013Z,178.01
2023-01-17T12:14:33.057Z,177.63
2023-01-17T12:15:33.092Z,163.58
2023-01-17T12:16:33.121Z,157.21
2023-01-17T12:17:33.100Z,172.30
2023-01-17T12:18:33.156Z,182.28
2023-01-17T12:19:33.149Z,175.83
2023-01-17T12:20:33.183Z,188.73
2023-01-17T12:21:33.271Z,169.09
2023-01-17T12:22:33.224Z,176.45
2023-01-17T12:23:33.219Z,177.51
2023-01-17T12:24:33.246Z,192.13
2023-01-17T12:25:33.245Z,190.92
2023-01-17T12:26:33.260Z,193.92
2023-01-17T12:27:34.273Z,193.84
2023-01-17T12:28:33.293Z,199.95
2023-01-17T12:29:33.289Z,205.42
2023-01-17T12:30:33.308Z,206.77
2023-01-17T12:31:33.372Z,204.33
2023-01-17T12:32:33.311Z,207.57
2023-01-17T12:33:33.328Z,209.55
2023-01-17T12:34:33.357Z,211.51
2023-01-17T12:35:33.360Z,211.95
2023-01-17T12:36:33.378Z,212.11
2023-01-17T12:37:33.367Z,212.71
2023-01-17T12:38:33.616Z,213.94
2023-01-17T12:39:33.380Z,216.71
2023-01-17T12:40:33.384Z,220.73
2023-01-17T12:41:33.408Z,221.17
2023-01-17T12:42:33.434Z,222.66
2023-01-17T12:43:33.437Z,222.61
2023-01-17T12:44:33.431Z,224.57
2023-01-17T12:45:33.452Z,225.00
2023-01-17T12:46:33.468Z,226.79
2023-01-17T12:47:33.465Z,226.67
2023-01-17T12:48:33.468Z,222.11
2023-01-17T12:49:33.494Z,218.53
2023-01-17T12:50:33.511Z,218.73
2023-01-17T12:51:33.494Z,219.52
2023-01-17T12:52:33.496Z,221.92
2023-01-17T12:53:33.497Z,226.84
2023-01-17T12:54:33.512Z,233.30
2023-01-17T12:55:33.502Z,234.51
2023-01-17T12:56:33.514Z,236.61
2023-01-17T12:57:33.524Z,239.46
2023-01-17T12:58:33.519Z,239.64
2023-01-17T12:59:33.523Z,241.85
2023-01-17T13:00:33.541Z,241.92
2023-01-17T13:01:33.661Z,242.05
2023-01-17T13:02:33.592Z,240.46
2023-01-17T13:03:33.544Z,241.88
2023-01-17T13:04:33.552Z,241.06
2023-01-17T13:05:33.607Z,240.63
2023-01-17T13:06:33.573Z,241.54
2023-01-17T13:07:33.604Z,241.96
2023-01-17T13:08:33.585Z,242.16
2023-01-17T13:09:33.583Z,242.66
2023-01-17T13:10:33.596Z,242.89
2023-01-17T13:11:33.622Z,243.75
2023-01-17T13:12:33.601Z,242.05
2023-01-17T13:13:33.644Z,242.43
2023-01-17T13:14:33.637Z,242.84
2023-01-17T13:15:33.624Z,244.49
2023-01-17T13:16:33.692Z,245.11
2023-01-17T13:17:33.635Z,244.68
2023-01-17T13:18:33.674Z,244.31
2023-01-17T13:19:33.668Z,244.43
2023-01-17T13:20:33.664Z,244.48
2023-01-17T13:21:33.707Z,244.87
2023-01-17T13:22:33.678Z,244.76
2023-01-17T13:23:33.671Z,246.13
2023-01-17T13:24:33.685Z,245.79
2023-01-17T13:25:33.689Z,245.64
2023-01-17T13:26:33.701Z,246.56
2023-01-17T13:27:33.724Z,245.19
2023-01-17T14:43:33.920Z,233.98
2023-01-17T14:44:34.201Z,235.02
2023-01-17T14:45:33.959Z,233.51
2023-01-17T14:46:33.912Z,233.82
2023-01-17T14:47:33.944Z,234.24
2023-01-17T14:48:33.922Z,231.70
2023-01-17T14:49:33.932Z,231.99
2023-01-17T14:50:33.915Z,232.96
2023-01-17T14:51:33.926Z,233.09
2023-01-17T14:52:33.934Z,232.57
2023-01-17T14:53:33.944Z,233.34
2023-01-17T14:54:33.947Z,231.08
2023-01-17T14:55:33.935Z,232.24
2023-01-17T14:56:33.942Z,232.72
2023-01-17T14:57:33.942Z,233.08
2023-01-17T14:58:33.921Z,231.12
2023-01-17T14:59:33.981Z,232.27
2023-01-17T15:00:33.948Z,232.00
2023-01-17T15:01:34.077Z,231.85
2023-01-17T15:02:34.120Z,231.17
2023-01-17T15:03:33.967Z,230.68
2023-01-17T15:04:33.945Z,230.33
2023-01-17T15:05:33.954Z,230.62
2023-01-17T15:06:33.951Z,231.46
2023-01-17T15:07:33.979Z,231.52
2023-01-17T15:08:33.969Z,230.51
2023-01-17T15:09:33.971Z,230.06
2023-01-17T15:10:33.990Z,231.76
2023-01-17T15:11:33.984Z,231.06
2023-01-17T15:12:33.974Z,231.16
2023-01-17T15:13:43.796Z,231.45
2023-01-17T15:14:35.004Z,231.50
2023-01-17T15:15:34.003Z,231.52
2023-01-17T15:16:34.069Z,230.37
2023-01-17T15:17:34.056Z,229.57
2023-01-17T15:18:33.993Z,230.61
2023-01-17T15:19:33.988Z,229.81
2023-01-17T15:20:34.009Z,229.70
2023-01-17T15:21:34.017Z,227.48
2023-01-17T15:22:34.005Z,227.94
2023-01-17T15:23:34.065Z,228.82
2023-01-17T15:24:33.997Z,230.04
2023-01-17T15:25:34.006Z,228.67
2023-01-17T15:26:33.988Z,229.35
2023-01-17T15:27:33.997Z,229.46
2023-01-17T15:28:34.004Z,227.18
2023-01-17T15:29:33.991Z,229.40
2023-01-17T15:30:34.039Z,227.28
2023-01-17T15:31:34.004Z,228.67
2023-01-17T15:32:34.032Z,227.78
2023-01-17T15:33:33.999Z,228.06
2023-01-17T15:34:34.005Z,228.25
2023-01-17T15:35:34.001Z,227.38
2023-01-17T15:36:34.020Z,227.72
2023-01-17T15:37:34.017Z,226.83
2023-01-17T15:38:39.018Z,228.56
2023-01-17T15:39:35.027Z,228.63
2023-01-17T15:40:34.014Z,228.08
2023-01-17T15:41:34.033Z,227.48
2023-01-17T15:42:34.014Z,228.74
2023-01-17T15:43:34.028Z,227.93
2023-01-17T15:44:46.787Z,226.91
2023-01-17T15:45:35.037Z,227.03
2023-01-17T15:46:34.051Z,227.08
2023-01-17T15:47:34.066Z,227.41
2023-01-17T15:48:34.036Z,225.78
2023-01-17T15:49:34.049Z,226.94
2023-01-17T15:50:34.054Z,226.27
2023-01-17T15:51:34.042Z,225.84
2023-01-17T15:52:34.026Z,225.97
2023-01-17T15:53:34.029Z,226.07
2023-01-17T15:54:34.034Z,225.76
2023-01-17T15:55:34.035Z,226.51
2023-01-17T15:56:34.033Z,224.55
2023-01-17T15:57:36.498Z,226.16
2023-01-17T15:58:34.040Z,226.06
2023-01-17T15:59:34.037Z,227.32
2023-01-17T16:00:34.034Z,226.00
2023-01-17T16:01:34.158Z,225.17
2023-01-17T16:02:34.098Z,225.19
2023-01-17T16:03:34.070Z,225.34
2023-01-17T16:04:34.077Z,225.35
2023-01-17T16:05:34.071Z,224.45
2023-01-17T16:06:34.034Z,226.14
2023-01-17T16:07:34.107Z,225.75
2023-01-17T16:08:34.051Z,224.90
2023-01-17T16:09:34.064Z,225.00
2023-01-17T16:10:34.051Z,223.99
2023-01-17T16:11:34.059Z,225.09
2023-01-17T16:12:34.076Z,224.01
2023-01-17T16:13:34.053Z,223.53
2023-01-17T16:14:51.329Z,225.00
2023-01-17T16:16:34.110Z,224.73
2023-01-17T16:17:34.059Z,223.20
2023-01-17T16:18:34.041Z,224.13
2023-01-17T16:19:34.071Z,222.87
2023-01-17T16:20:34.047Z,223.53
2023-01-17T16:21:34.053Z,223.23
2023-01-17T16:22:34.040Z,223.66
2023-01-17T16:23:34.062Z,222.84
2023-01-17T16:24:34.075Z,223.57
2023-01-17T16:25:34.048Z,222.54
2023-01-17T16:26:34.048Z,221.79
2023-01-17T16:27:34.056Z,222.42
2023-01-17T16:28:34.048Z,223.40
2023-01-17T16:29:34.035Z,222.03
2023-01-17T16:30:34.045Z,223.63
2023-01-17T16:31:34.050Z,222.55
2023-01-17T16:32:34.030Z,221.93
2023-01-17T16:33:34.075Z,221.81
2023-01-17T16:34:34.063Z,222.18
2023-01-17T16:35:34.054Z,221.99
2023-01-17T16:36:34.068Z,221.01
2023-01-17T16:37:34.090Z,221.15
2023-01-17T16:38:34.048Z,222.55
2023-01-17T16:39:34.096Z,220.94
2023-01-17T16:40:34.050Z,221.99
2023-01-17T16:41:34.056Z,220.84
2023-01-17T16:42:34.073Z,222.34
2023-01-17T16:43:34.054Z,221.39
2023-01-17T16:44:34.059Z,220.09
2023-01-17T16:45:34.065Z,219.79
2023-01-17T16:46:34.101Z,220.19
2023-01-17T16:47:34.083Z,219.46
2023-01-17T16:48:34.073Z,220.05
2023-01-17T16:49:34.070Z,218.46
2023-01-17T16:50:34.071Z,218.83
2023-01-17T16:51:34.068Z,218.76
2023-01-17T16:52:34.089Z,218.14
2023-01-17T16:53:34.088Z,217.59
2023-01-17T16:54:34.100Z,217.60
2023-01-17T16:55:34.097Z,216.97
2023-01-17T16:56:34.105Z,217.01
2023-01-17T16:57:34.115Z,216.90
2023-01-17T16:58:34.132Z,216.34
2023-01-17T16:59:46.089Z,217.25
2023-01-17T17:00:35.147Z,217.35
2023-01-17T17:01:34.223Z,216.44
2023-01-17T17:02:34.172Z,216.55
2023-01-17T17:03:34.160Z,215.80
2023-01-17T17:04:34.167Z,216.12
2023-01-17T17:05:34.177Z,216.69
2023-01-17T17:06:34.177Z,215.94
2023-01-17T17:07:34.185Z,214.13
2023-01-17T17:08:34.197Z,214.35
2023-01-17T17:09:34.206Z,212.87
2023-01-17T17:10:34.202Z,213.03
2023-01-17T17:11:34.221Z,212.40
2023-01-17T17:12:34.207Z,213.17
2023-01-17T17:13:34.224Z,213.24
2023-01-17T17:14:34.235Z,213.33
2023-01-17T17:15:34.269Z,213.63
2023-01-17T17:16:34.244Z,213.50
2023-01-17T17:17:34.272Z,212.59
2023-01-17T17:18:34.256Z,212.28
2023-01-17T17:19:34.269Z,213.73
2023-01-17T17:20:34.286Z,212.55
2023-01-17T17:21:34.304Z,211.19
2023-01-17T17:22:34.308Z,211.45
2023-01-17T17:23:34.305Z,210.02
2023-01-17T17:24:34.302Z,210.34
2023-01-17T17:25:34.327Z,211.54
2023-01-17T17:26:34.353Z,210.21
2023-01-17T17:27:34.333Z,209.02
2023-01-17T17:28:34.339Z,208.80
2023-01-17T17:29:34.350Z,210.00
2023-01-17T17:30:34.356Z,209.14
2023-01-17T17:31:34.365Z,209.23
2023-01-17T17:32:34.365Z,209.73
2023-01-17T17:33:34.373Z,209.08
2023-01-17T17:34:34.371Z,208.75
2023-01-17T17:35:34.384Z,209.66
2023-01-17T17:36:34.404Z,208.40
2023-01-17T17:37:34.395Z,209.58
2023-01-17T17:38:34.390Z,208.23
2023-01-17T17:39:34.408Z,208.42
2023-01-17T17:40:34.422Z,208.58
2023-01-17T17:41:34.428Z,208.47
2023-01-17T17:42:34.429Z,209.30
2023-01-17T17:43:34.440Z,209.16
2023-01-17T17:44:34.450Z,208.17
2023-01-17T17:45:34.462Z,208.62
2023-01-17T17:46:34.487Z,207.77
2023-01-17T17:47:34.461Z,208.04
2023-01-17T17:48:34.464Z,208.93
2023-01-17T17:49:34.474Z,209.46
2023-01-17T17:50:34.485Z,209.10
2023-01-17T17:51:34.466Z,208.49
2023-01-17T17:52:34.478Z,209.23
2023-01-17T17:53:34.591Z,207.59
2023-01-17T17:54:34.479Z,209.15
2023-01-17T17:55:34.511Z,210.24
2023-01-17T17:56:34.486Z,206.95
2023-01-17T17:57:34.488Z,209.62
2023-01-17T17:58:34.508Z,208.95
2023-01-17T17:59:34.501Z,208.66
2023-01-17T18:00:34.489Z,209.32
2023-01-17T18:01:34.602Z,209.53
2023-01-17T18:02:34.496Z,208.65
2023-01-17T18:03:34.512Z,208.86
2023-01-17T18:04:34.565Z,209.82
2023-01-17T18:05:34.517Z,207.54
2023-01-17T18:06:34.543Z,208.10
2023-01-17T18:07:34.553Z,209.26
2023-01-17T18:08:34.538Z,208.95
2023-01-17T18:09:34.549Z,210.00
2023-01-17T18:10:34.557Z,210.58
2023-01-17T18:11:34.578Z,208.03
2023-01-17T18:12:34.561Z,208.05
2023-01-17T18:13:34.571Z,208.81
2023-01-17T18:14:34.596Z,209.25
2023-01-17T18:15:34.581Z,207.19
2023-01-17T18:37:34.616Z,206.14
2023-01-17T18:38:34.630Z,204.58
2023-01-17T18:39:34.643Z,204.70
2023-01-17T18:40:34.624Z,203.67
2023-01-17T18:41:34.674Z,204.11
2023-01-17T18:42:34.651Z,203.88
2023-01-17T18:43:34.648Z,203.63
2023-01-17T18:44:34.639Z,203.28
2023-01-17T18:45:34.637Z,204.15
2023-01-17T18:46:34.686Z,204.21
2023-01-17T18:47:34.641Z,202.24
2023-01-17T18:48:34.650Z,200.68
2023-01-17T18:49:34.653Z,202.97
2023-01-17T18:50:34.661Z,203.25
2023-01-17T18:51:34.689Z,201.95
2023-01-17T18:52:34.652Z,200.96
2023-01-17T18:53:34.702Z,201.90
2023-01-17T18:54:34.662Z,201.36
2023-01-17T18:55:34.669Z,201.12
2023-01-17T18:56:34.653Z,200.86
2023-01-17T18:57:34.667Z,201.33
2023-01-17T18:58:34.649Z,199.81
2023-01-17T18:59:34.641Z,202.15
2023-01-17T19:00:34.673Z,203.27
2023-01-17T19:01:35.941Z,201.53
2023-01-17T19:02:34.658Z,200.48
2023-01-17T19:03:34.668Z,200.97
2023-01-17T19:04:34.646Z,200.24
2023-01-17T19:05:34.645Z,199.14
2023-01-17T19:06:34.632Z,201.36
2023-01-17T19:07:34.636Z,199.87
2023-01-17T19:08:34.641Z,200.67
2023-01-17T19:09:34.640Z,200.00
2023-01-17T19:10:34.623Z,199.76
2023-01-17T19:11:34.630Z,199.64
2023-01-17T19:12:34.631Z,199.66
2023-01-17T19:13:34.625Z,198.89
2023-01-17T19:14:34.618Z,199.02
2023-01-17T19:15:34.615Z,199.13
2023-01-17T19:16:34.843Z,199.33
2023-01-17T19:17:34.623Z,199.94
2023-01-17T19:18:34.640Z,199.91
2023-01-17T19:19:34.635Z,200.07
2023-01-17T19:20:34.622Z,199.15
2023-01-17T19:21:34.631Z,198.83
2023-01-17T19:22:34.627Z,198.29
2023-01-17T19:23:34.645Z,198.69
2023-01-17T19:24:34.647Z,198.36
2023-01-17T19:25:34.639Z,198.99
2023-01-17T19:26:34.637Z,197.98
2023-01-17T19:27:34.633Z,196.94
2023-01-17T19:28:35.620Z,197.23
2023-01-17T19:29:34.644Z,196.65
2023-01-17T19:30:34.647Z,196.25
2023-01-17T19:31:34.709Z,196.13
2023-01-17T19:32:34.637Z,196.27
2023-01-17T19:33:34.637Z,196.33
2023-01-17T19:34:34.646Z,196.61
2023-01-17T19:35:34.643Z,197.15
2023-01-17T19:36:34.650Z,198.29
2023-01-17T19:37:34.653Z,198.56
2023-01-17T19:38:34.636Z,197.13
2023-01-17T19:39:34.624Z,197.26
2023-01-17T19:40:34.627Z,197.27
2023-01-17T19:41:34.654Z,197.63
2023-01-17T19:42:34.617Z,197.25
2023-01-17T19:43:34.630Z,197.48
2023-01-17T19:44:34.625Z,197.53
2023-01-17T19:45:34.696Z,197.96
2023-01-17T19:46:34.658Z,196.78
2023-01-17T19:47:34.635Z,199.75
2023-01-17T19:48:34.627Z,198.58
2023-01-17T19:49:34.638Z,197.79
2023-01-17T19:50:34.638Z,197.08
2023-01-17T19:51:34.649Z,199.48
2023-01-17T19:52:34.635Z,199.00
2023-01-17T19:53:34.643Z,199.00
2023-01-17T19:54:34.646Z,199.11
2023-01-17T19:55:34.652Z,198.65
2023-01-17T19:56:34.661Z,198.44
2023-01-17T19:57:34.685Z,197.51
2023-01-17T19:58:34.650Z,199.70
2023-01-17T19:59:34.665Z,198.50
2023-01-17T20:00:45.914Z,198.64
2023-01-17T20:01:35.856Z,198.70
2023-01-17T20:02:34.778Z,198.83
2023-01-17T20:03:34.652Z,199.10
2023-01-17T20:04:34.656Z,199.75
2023-01-17T20:05:34.650Z,198.23
2023-01-17T20:06:34.676Z,199.99
2023-01-17T20:07:34.661Z,198.60
2023-01-17T20:08:34.678Z,199.78
2023-01-17T20:09:34.661Z,200.20
2023-01-17T20:10:34.675Z,199.84
2023-01-17T20:11:34.671Z,199.50
2023-01-17T20:12:34.679Z,197.66
2023-01-17T20:13:34.698Z,200.16
2023-01-17T20:14:34.673Z,199.03
2023-01-17T20:15:34.678Z,199.65
2023-01-17T20:16:34.726Z,198.81
2023-01-17T20:17:34.781Z,199.36
2023-01-17T20:18:34.706Z,199.61
2023-01-17T20:19:34.681Z,199.77
2023-01-17T20:20:34.680Z,199.82
2023-01-17T20:21:34.699Z,200.08
2023-01-17T20:22:34.680Z,199.95
2023-01-17T20:23:34.679Z,199.71
2023-01-17T20:24:34.679Z,199.68
2023-01-17T20:25:34.686Z,199.45